createdAt,value
2019-04-03T00:00:34.531Z,0.00
2019-04-03T00:01:34.727Z,0.00
2019-04-03T00:02:34.369Z,0.00
2019-04-03T00:03:34.288Z,0.00
2019-04-03T00:04:34.674Z,0.00
2019-04-03T00:05:35.466Z,0.00
2019-04-03T00:06:35.399Z,0.00
2019-04-03T00:07:35.894Z,0.00
2019-04-03T00:08:34.761Z,0.00
2019-04-03T00:09:35.899Z,0.00
2019-04-03T00:10:36.011Z,0.00
2019-04-03T00:11:34.063Z,0.00
2019-04-03T00:12:34.143Z,0.00
2019-04-03T00:13:34.045Z,0.00
2019-04-03T00:14:34.169Z,0.00
2019-04-03T00:15:34.025Z,0.00
2019-04-03T00:16:34.116Z,0.00
2019-04-03T00:17:33.999Z,0.00
2019-04-03T00:18:35.077Z,0.00
2019-04-03T00:19:34.007Z,0.00
2019-04-03T00:20:33.997Z,0.00
2019-04-03T00:21:35.083Z,0.00
2019-04-03T00:22:33.962Z,0.00
2019-04-03T00:23:33.989Z,0.00
2019-04-03T00:24:33.954Z,0.00
2019-04-03T00:25:33.910Z,0.00
2019-04-03T00:26:33.967Z,0.00
2019-04-03T00:27:33.964Z,0.00
2019-04-03T00:28:33.895Z,0.00
2019-04-03T00:29:33.952Z,0.00
2019-04-03T00:30:33.864Z,0.00
2019-04-03T00:31:33.853Z,0.00
2019-04-03T00:32:33.844Z,0.00
2019-04-03T00:33:33.874Z,0.00
2019-04-03T00:34:33.825Z,0.00
2019-04-03T00:35:33.908Z,0.00
2019-04-03T00:36:33.878Z,0.00
2019-04-03T00:37:33.873Z,0.00
2019-04-03T00:38:33.807Z,0.00
2019-04-03T00:39:33.767Z,0.00
2019-04-03T00:40:33.858Z,0.00
2019-04-03T00:41:33.732Z,0.00
2019-04-03T00:42:33.729Z,0.00
2019-04-03T00:43:33.760Z,0.00
2019-04-03T00:44:33.720Z,0.00
2019-04-03T00:45:34.765Z,0.00
2019-04-03T00:46:33.758Z,0.00
2019-04-03T00:47:33.661Z,0.00
2019-04-03T00:48:33.652Z,0.00
2019-04-03T00:49:33.781Z,0.00
2019-04-03T00:50:33.634Z,0.00
2019-04-03T00:51:33.694Z,0.00
2019-04-03T00:52:33.606Z,0.00
2019-04-03T00:53:33.617Z,0.00
2019-04-03T00:54:33.605Z,0.00
2019-04-03T00:55:33.676Z,0.00
2019-04-03T00:56:33.576Z,0.00
2019-04-03T00:57:33.715Z,0.00
2019-04-03T00:58:33.538Z,0.00
2019-04-03T00:59:35.627Z,0.00
2019-04-03T01:00:33.517Z,0.00
2019-04-03T01:01:33.581Z,0.00
2019-04-03T01:02:33.488Z,0.00
2019-04-03T01:03:33.644Z,0.00
2019-04-03T01:04:33.500Z,0.00
2019-04-03T01:05:33.550Z,0.00
2019-04-03T01:06:33.556Z,0.00
2019-04-03T01:07:33.491Z,0.00
2019-04-03T01:08:33.433Z,0.00
2019-04-03T01:09:33.442Z,0.00
2019-04-03T01:10:33.582Z,0.00
2019-04-03T01:11:33.453Z,0.00
2019-04-03T01:12:33.386Z,0.00
2019-04-03T01:13:33.445Z,0.00
2019-04-03T01:14:33.385Z,0.00
2019-04-03T01:15:33.355Z,0.00
2019-04-03T01:16:33.651Z,0.00
2019-04-03T01:17:34.927Z,0.00
2019-04-03T01:18:35.261Z,0.00
2019-04-03T01:19:36.134Z,0.00
2019-04-03T01:20:34.577Z,0.00
2019-04-03T01:21:33.279Z,0.00
2019-04-03T01:22:33.299Z,0.00
2019-04-03T01:23:33.259Z,0.00
2019-04-03T01:24:33.339Z,0.00
2019-04-03T01:25:33.250Z,0.00
2019-04-03T01:26:33.283Z,0.00
2019-04-03T01:27:33.212Z,0.00
2019-04-03T01:28:33.213Z,0.00
2019-04-03T01:29:33.192Z,0.00
2019-04-03T01:30:33.303Z,0.00
2019-04-03T01:31:33.173Z,0.00
2019-04-03T01:32:33.184Z,0.00
2019-04-03T01:33:33.145Z,0.00
2019-04-03T01:34:34.135Z,0.00
2019-04-03T01:35:33.135Z,0.00
2019-04-03T01:36:33.107Z,0.00
2019-04-03T01:37:33.274Z,0.00
2019-04-03T01:38:33.097Z,0.00
2019-04-03T01:39:33.071Z,0.00
2019-04-03T01:40:33.178Z,0.00
2019-04-03T01:41:33.169Z,0.00
2019-04-03T01:42:33.050Z,0.00
2019-04-03T01:43:33.141Z,0.00
2019-04-03T01:44:33.021Z,0.00
2019-04-03T01:45:33.123Z,0.00
2019-04-03T01:46:32.993Z,0.00
2019-04-03T01:47:33.088Z,0.00
2019-04-03T01:48:32.976Z,0.00
2019-04-03T01:49:34.062Z,0.00
2019-04-03T01:50:33.058Z,0.00
2019-04-03T01:51:32.984Z,0.00
2019-04-03T01:52:32.925Z,0.00
2019-04-03T01:53:33.226Z,0.00
2019-04-03T01:54:33.708Z,0.00
2019-04-03T01:55:34.740Z,0.00
2019-04-03T01:56:35.906Z,0.00
2019-04-03T01:57:32.868Z,0.00
2019-04-03T01:58:32.857Z,0.00
2019-04-03T01:59:32.941Z,0.00
2019-04-03T02:00:32.930Z,0.00
2019-04-03T02:01:32.819Z,0.00
2019-04-03T02:02:33.848Z,0.00
2019-04-03T02:03:32.810Z,0.00
2019-04-03T02:04:32.793Z,0.00
2019-04-03T02:05:32.881Z,0.00
2019-04-03T02:06:32.771Z,0.00
2019-04-03T02:07:33.792Z,0.00
2019-04-03T02:08:32.733Z,0.00
2019-04-03T02:09:32.734Z,0.00
2019-04-03T02:10:32.733Z,0.00
2019-04-03T02:11:32.733Z,0.00
2019-04-03T02:12:32.865Z,0.00
2019-04-03T02:13:32.774Z,0.00
2019-04-03T02:14:32.669Z,0.00
2019-04-03T02:15:32.931Z,0.00
2019-04-03T02:16:32.656Z,0.00
2019-04-03T02:17:32.766Z,0.00
2019-04-03T02:18:32.640Z,0.00
2019-04-03T02:19:32.689Z,0.00
2019-04-03T02:20:32.700Z,0.00
2019-04-03T02:21:32.588Z,0.00
2019-04-03T02:22:34.629Z,0.00
2019-04-03T02:23:32.570Z,0.00
2019-04-03T02:24:32.620Z,0.00
2019-04-03T02:25:32.565Z,0.00
2019-04-03T02:26:33.075Z,0.00
2019-04-03T02:27:33.310Z,0.00
2019-04-03T02:28:34.210Z,0.00
2019-04-03T02:29:32.591Z,0.00
2019-04-03T02:30:32.809Z,0.00
2019-04-03T02:31:32.514Z,0.00
2019-04-03T02:32:32.493Z,0.00
2019-04-03T02:33:32.537Z,0.00
2019-04-03T02:34:34.670Z,0.00
2019-04-03T02:35:32.516Z,0.00
2019-04-03T02:36:33.634Z,0.00
2019-04-03T02:37:32.414Z,0.00
2019-04-03T02:38:32.478Z,0.00
2019-04-03T02:39:32.398Z,0.00
2019-04-03T02:40:33.155Z,0.00
2019-04-03T02:41:35.295Z,0.00
2019-04-03T02:42:32.363Z,0.00
2019-04-03T02:43:32.430Z,0.00
2019-04-03T02:44:32.310Z,0.00
2019-04-03T02:45:32.390Z,0.00
2019-04-03T02:46:32.292Z,0.00
2019-04-03T02:47:33.562Z,0.00
2019-04-03T02:48:32.682Z,0.00
2019-04-03T02:49:33.345Z,0.00
2019-04-03T02:50:32.253Z,0.00
2019-04-03T02:51:32.365Z,0.00
2019-04-03T02:52:32.245Z,0.00
2019-04-03T02:53:32.235Z,0.00
2019-04-03T02:54:34.660Z,0.00
2019-04-03T02:55:32.304Z,0.00
2019-04-03T02:56:32.311Z,0.00
2019-04-03T02:57:32.177Z,0.00
2019-04-03T02:58:32.178Z,0.00
2019-04-03T02:59:32.210Z,0.00
2019-04-03T03:00:33.602Z,0.00
2019-04-03T03:01:32.238Z,0.00
2019-04-03T03:02:32.125Z,0.00
2019-04-03T03:03:32.120Z,0.00
2019-04-03T03:04:32.120Z,0.00
2019-04-03T03:05:32.160Z,0.00
2019-04-03T03:06:33.141Z,0.00
2019-04-03T03:07:35.639Z,0.00
2019-04-03T03:08:32.055Z,0.00
2019-04-03T03:09:32.061Z,0.00
2019-04-03T03:10:32.095Z,0.00
2019-04-03T03:11:32.015Z,0.00
2019-04-03T03:12:32.090Z,0.00
2019-04-03T03:13:34.539Z,0.00
2019-04-03T03:14:31.990Z,0.00
2019-04-03T03:15:32.398Z,0.00
2019-04-03T03:16:32.067Z,0.00
2019-04-03T03:17:31.961Z,0.00
2019-04-03T03:18:31.998Z,0.00
2019-04-03T03:19:33.092Z,0.00
2019-04-03T03:20:31.919Z,0.00
2019-04-03T03:21:32.968Z,0.00
2019-04-03T03:22:32.157Z,0.00
2019-04-03T03:23:33.979Z,0.00
2019-04-03T03:24:31.897Z,0.00
2019-04-03T03:25:33.285Z,0.00
2019-04-03T03:26:31.905Z,0.00
2019-04-03T03:27:31.911Z,0.00
2019-04-03T03:28:31.831Z,0.00
2019-04-03T03:29:31.853Z,0.00
2019-04-03T03:30:42.660Z,0.00
2019-04-03T03:31:59.178Z,0.00
2019-04-03T03:32:35.678Z,0.00
2019-04-03T03:33:36.931Z,0.00
2019-04-03T03:34:51.502Z,0.00
2019-04-03T03:35:40.307Z,0.00
2019-04-03T03:36:33.422Z,0.00
2019-04-03T03:37:34.090Z,0.00
2019-04-03T03:38:32.047Z,0.00
2019-04-03T03:39:31.729Z,0.00
2019-04-03T03:40:31.797Z,0.00
2019-04-03T03:41:31.697Z,0.00
2019-04-03T03:42:32.212Z,0.00
2019-04-03T03:43:32.046Z,0.00
2019-04-03T03:44:31.658Z,0.00
2019-04-03T03:45:32.694Z,0.00
2019-04-03T03:46:31.748Z,0.00
2019-04-03T03:47:34.274Z,0.00
2019-04-03T03:48:31.728Z,0.00
2019-04-03T03:49:33.652Z,0.00
2019-04-03T03:50:31.564Z,0.00
2019-04-03T03:51:31.997Z,0.00
2019-04-03T03:52:36.075Z,0.00
2019-04-03T03:53:32.546Z,0.00
2019-04-03T03:54:31.761Z,0.00
2019-04-03T03:55:31.511Z,0.00
2019-04-03T03:56:32.951Z,0.00
2019-04-03T03:57:31.486Z,0.00
2019-04-03T03:58:31.478Z,0.00
2019-04-03T03:59:32.658Z,0.00
2019-04-03T04:00:31.763Z,0.00
2019-04-03T04:01:32.653Z,0.00
2019-04-03T04:02:31.558Z,0.00
2019-04-03T04:03:31.593Z,0.00
2019-04-03T04:04:31.653Z,0.00
2019-04-03T04:05:31.820Z,0.00
2019-04-03T04:06:35.011Z,0.00
2019-04-03T04:07:36.232Z,0.00
2019-04-03T04:08:31.679Z,0.00
2019-04-03T04:09:31.342Z,0.00
2019-04-03T04:10:36.220Z,0.00
2019-04-03T04:11:32.408Z,0.00
2019-04-03T04:12:31.392Z,0.00
2019-04-03T04:13:31.314Z,0.00
2019-04-03T04:14:31.740Z,0.00
2019-04-03T04:15:31.816Z,0.00
2019-04-03T04:16:35.912Z,0.00
2019-04-03T04:17:32.275Z,0.00
2019-04-03T04:18:31.383Z,0.00
2019-04-03T04:19:31.703Z,0.00
2019-04-03T04:20:31.232Z,0.00
2019-04-03T04:21:31.398Z,0.00
2019-04-03T04:22:31.533Z,0.00
2019-04-03T04:23:32.243Z,0.00
2019-04-03T04:24:31.277Z,0.00
2019-04-03T04:25:31.165Z,0.00
2019-04-03T04:26:31.693Z,0.00
2019-04-03T04:27:33.575Z,0.00
2019-04-03T04:28:31.139Z,0.00
2019-04-03T04:29:31.225Z,0.00
2019-04-03T04:30:31.278Z,0.00
2019-04-03T04:31:31.114Z,0.00
2019-04-03T04:32:33.298Z,0.00
2019-04-03T04:33:31.062Z,0.00
2019-04-03T04:34:32.084Z,0.00
2019-04-03T04:35:31.043Z,0.00
2019-04-03T04:36:31.297Z,0.00
2019-04-03T04:37:31.088Z,0.00
2019-04-03T04:38:31.044Z,0.00
2019-04-03T04:39:31.005Z,0.00
2019-04-03T04:40:31.653Z,0.00
2019-04-03T04:41:32.803Z,0.00
2019-04-03T04:42:31.355Z,0.00
2019-04-03T04:43:31.064Z,0.00
2019-04-03T04:44:31.215Z,5.62
2019-04-03T04:45:33.280Z,5.62
2019-04-03T04:46:31.018Z,5.62
2019-04-03T04:47:31.079Z,5.62
2019-04-03T04:48:30.928Z,5.62
2019-04-03T04:49:30.961Z,11.25
2019-04-03T04:50:30.965Z,11.25
2019-04-03T04:51:30.882Z,11.25
2019-04-03T04:52:31.198Z,11.25
2019-04-03T04:53:30.842Z,11.25
2019-04-03T04:54:31.295Z,16.88
2019-04-03T04:55:31.555Z,16.88
2019-04-03T04:56:31.007Z,16.88
2019-04-03T04:57:30.784Z,22.50
2019-04-03T04:58:30.785Z,22.50
2019-04-03T04:59:31.886Z,22.50
2019-04-03T05:00:30.755Z,22.50
2019-04-03T05:01:30.958Z,22.50
2019-04-03T05:02:30.736Z,28.12
2019-04-03T05:03:30.819Z,28.12
2019-04-03T05:04:30.717Z,28.12
2019-04-03T05:05:31.545Z,28.12
2019-04-03T05:06:30.699Z,33.75
2019-04-03T05:07:31.830Z,33.75
2019-04-03T05:08:32.220Z,33.75
2019-04-03T05:09:30.649Z,39.38
2019-04-03T05:10:30.685Z,39.38
2019-04-03T05:11:30.720Z,39.38
2019-04-03T05:12:30.787Z,45.00
2019-04-03T05:13:30.721Z,45.00
2019-04-03T05:14:30.601Z,50.62
2019-04-03T05:15:30.653Z,56.25
2019-04-03T05:16:30.594Z,61.88
2019-04-03T05:17:30.583Z,67.50
2019-04-03T05:18:30.748Z,73.12
2019-04-03T05:19:32.564Z,78.75
2019-04-03T05:20:30.747Z,84.38
2019-04-03T05:21:30.692Z,90.00
2019-04-03T05:22:30.505Z,90.00
2019-04-03T05:23:37.176Z,95.62
2019-04-03T05:24:30.486Z,101.25
2019-04-03T05:25:30.499Z,101.25
2019-04-03T05:26:32.195Z,101.25
2019-04-03T05:27:33.501Z,101.25
2019-04-03T05:28:30.439Z,101.25
2019-04-03T05:29:30.488Z,101.25
2019-04-03T05:30:31.479Z,106.88
2019-04-03T05:31:30.401Z,106.88
2019-04-03T05:32:30.582Z,112.50
2019-04-03T05:33:30.380Z,118.12
2019-04-03T05:34:30.410Z,123.75
2019-04-03T05:35:30.351Z,129.38
2019-04-03T05:36:30.480Z,135.00
2019-04-03T05:37:31.382Z,140.62
2019-04-03T05:38:30.444Z,146.25
2019-04-03T05:39:30.376Z,151.88
2019-04-03T05:40:30.284Z,157.50
2019-04-03T05:41:30.414Z,163.12
2019-04-03T05:42:30.306Z,163.12
2019-04-03T05:43:31.402Z,168.75
2019-04-03T05:44:32.906Z,168.75
2019-04-03T05:45:30.268Z,168.75
2019-04-03T05:46:30.252Z,174.38
2019-04-03T05:47:31.273Z,174.38
2019-04-03T05:48:30.286Z,180.00
2019-04-03T05:49:30.625Z,180.00
2019-04-03T05:50:30.189Z,191.25
2019-04-03T05:51:31.413Z,196.88
2019-04-03T05:52:30.173Z,208.12
2019-04-03T05:53:30.200Z,225.00
2019-04-03T05:54:30.174Z,236.25
2019-04-03T05:55:31.163Z,247.50
2019-04-03T05:56:30.123Z,258.75
2019-04-03T05:57:30.315Z,270.00
2019-04-03T05:58:30.282Z,275.62
2019-04-03T05:59:33.451Z,281.25
2019-04-03T06:00:30.084Z,275.62
2019-04-03T06:01:30.155Z,275.62
2019-04-03T06:02:30.074Z,270.00
2019-04-03T06:03:40.313Z,264.38
2019-04-03T06:04:31.085Z,258.75
2019-04-03T06:05:30.221Z,253.12
2019-04-03T06:06:29.998Z,253.12
2019-04-03T06:07:30.097Z,258.75
2019-04-03T06:08:30.198Z,258.75
2019-04-03T06:09:29.995Z,258.75
2019-04-03T06:10:32.372Z,258.75
2019-04-03T06:11:30.030Z,253.12
2019-04-03T06:12:29.961Z,247.50
2019-04-03T06:13:29.930Z,247.50
2019-04-03T06:14:29.922Z,236.25
2019-04-03T06:15:29.991Z,230.62
2019-04-03T06:16:29.941Z,225.00
2019-04-03T06:17:29.972Z,219.38
2019-04-03T06:18:31.986Z,213.75
2019-04-03T06:19:29.974Z,208.12
2019-04-03T06:20:29.853Z,208.12
2019-04-03T06:21:29.904Z,202.50
2019-04-03T06:22:29.846Z,208.12
2019-04-03T06:23:29.845Z,208.12
2019-04-03T06:24:30.022Z,213.75
2019-04-03T06:25:30.694Z,219.38
2019-04-03T06:26:29.926Z,225.00
2019-04-03T06:27:29.787Z,230.62
2019-04-03T06:28:29.777Z,241.88
2019-04-03T06:29:29.848Z,264.38
2019-04-03T06:30:29.747Z,275.62
2019-04-03T06:31:29.790Z,286.88
2019-04-03T06:32:30.164Z,292.50
2019-04-03T06:33:31.436Z,298.12
2019-04-03T06:34:29.690Z,303.75
2019-04-03T06:35:29.759Z,309.38
2019-04-03T06:36:29.681Z,309.38
2019-04-03T06:37:29.742Z,320.62
2019-04-03T06:38:29.800Z,326.25
2019-04-03T06:39:31.570Z,343.12
2019-04-03T06:40:29.705Z,354.38
2019-04-03T06:41:29.672Z,360.00
2019-04-03T06:42:29.650Z,360.00
2019-04-03T06:43:30.653Z,354.38
2019-04-03T06:44:29.585Z,348.75
2019-04-03T06:45:29.566Z,343.12
2019-04-03T06:46:29.936Z,337.50
2019-04-03T06:47:31.853Z,343.12
2019-04-03T06:48:29.725Z,354.38
2019-04-03T06:49:29.617Z,365.62
2019-04-03T06:50:29.509Z,388.12
2019-04-03T06:51:29.499Z,405.00
2019-04-03T06:52:29.758Z,421.88
2019-04-03T06:53:29.480Z,427.50
2019-04-03T06:54:31.697Z,421.88
2019-04-03T06:55:29.462Z,416.25
2019-04-03T06:56:29.441Z,416.25
2019-04-03T06:57:29.461Z,416.25
2019-04-03T06:58:37.308Z,416.25
2019-04-03T06:59:30.522Z,421.88
2019-04-03T07:00:29.463Z,421.88
2019-04-03T07:01:29.497Z,416.25
2019-04-03T07:02:31.604Z,410.62
2019-04-03T07:03:29.456Z,399.38
2019-04-03T07:04:29.356Z,393.75
2019-04-03T07:05:30.415Z,388.12
2019-04-03T07:06:29.335Z,393.75
2019-04-03T07:07:33.958Z,405.00
2019-04-03T07:08:34.843Z,416.25
2019-04-03T07:09:35.564Z,433.12
2019-04-03T07:10:30.297Z,433.12
2019-04-03T07:11:29.309Z,433.12
2019-04-03T07:12:29.334Z,438.75
2019-04-03T07:13:30.389Z,444.38
2019-04-03T07:14:29.240Z,450.00
2019-04-03T07:15:30.500Z,450.00
2019-04-03T07:16:29.236Z,455.62
2019-04-03T07:17:32.066Z,466.88
2019-04-03T07:18:29.289Z,472.50
2019-04-03T07:19:29.192Z,483.75
2019-04-03T07:20:29.228Z,500.62
2019-04-03T07:21:29.177Z,517.50
2019-04-03T07:22:29.194Z,540.00
2019-04-03T07:23:29.940Z,562.50
2019-04-03T07:24:29.814Z,579.38
2019-04-03T07:25:30.174Z,596.25
2019-04-03T07:26:29.105Z,613.12
2019-04-03T07:27:29.141Z,630.00
2019-04-03T07:28:30.629Z,624.38
2019-04-03T07:29:29.077Z,613.12
2019-04-03T07:30:29.098Z,601.88
2019-04-03T07:31:29.060Z,607.50
2019-04-03T07:32:29.089Z,630.00
2019-04-03T07:33:29.465Z,641.25
2019-04-03T07:34:29.032Z,646.88
2019-04-03T07:35:29.315Z,641.25
2019-04-03T07:36:29.101Z,635.62
2019-04-03T07:37:28.992Z,630.00
2019-04-03T07:38:29.094Z,630.00
2019-04-03T07:39:28.962Z,635.62
2019-04-03T07:40:28.952Z,658.12
2019-04-03T07:41:29.054Z,691.88
2019-04-03T07:42:28.933Z,725.62
2019-04-03T07:43:29.028Z,759.38
2019-04-03T07:44:29.841Z,765.00
2019-04-03T07:45:28.905Z,781.88
2019-04-03T07:46:28.898Z,781.88
2019-04-03T07:47:29.987Z,776.25
2019-04-03T07:48:28.890Z,776.25
2019-04-03T07:49:28.910Z,748.12
2019-04-03T07:50:28.846Z,725.62
2019-04-03T07:51:28.835Z,691.88
2019-04-03T07:52:29.919Z,669.38
2019-04-03T07:53:28.819Z,646.88
2019-04-03T07:54:29.859Z,630.00
2019-04-03T07:55:28.934Z,613.12
2019-04-03T07:56:28.999Z,601.88
2019-04-03T07:57:29.720Z,607.50
2019-04-03T07:58:31.140Z,635.62
2019-04-03T07:59:28.752Z,646.88
2019-04-03T08:00:28.843Z,669.38
2019-04-03T08:01:28.716Z,691.88
2019-04-03T08:02:28.774Z,703.12
2019-04-03T08:03:29.008Z,720.00
2019-04-03T08:04:29.735Z,725.62
2019-04-03T08:05:30.924Z,725.62
2019-04-03T08:06:29.048Z,731.25
2019-04-03T08:07:28.657Z,725.62
2019-04-03T08:08:28.895Z,720.00
2019-04-03T08:09:28.617Z,720.00
2019-04-03T08:10:30.237Z,725.62
2019-04-03T08:11:28.588Z,725.62
2019-04-03T08:12:28.579Z,736.88
2019-04-03T08:13:28.885Z,753.75
2019-04-03T08:14:28.593Z,759.38
2019-04-03T08:15:28.550Z,753.75
2019-04-03T08:16:29.650Z,742.50
2019-04-03T08:17:28.542Z,731.25
2019-04-03T08:18:28.611Z,725.62
2019-04-03T08:19:28.653Z,703.12
2019-04-03T08:20:30.647Z,697.50
2019-04-03T08:21:30.497Z,686.25
2019-04-03T08:22:28.485Z,686.25
2019-04-03T08:23:28.476Z,686.25
2019-04-03T08:24:28.446Z,663.75
2019-04-03T08:25:28.688Z,669.38
2019-04-03T08:26:28.426Z,680.62
2019-04-03T08:27:28.476Z,691.88
2019-04-03T08:28:30.308Z,714.38
2019-04-03T08:29:28.398Z,731.25
2019-04-03T08:30:28.488Z,736.88
2019-04-03T08:31:28.556Z,748.12
2019-04-03T08:32:28.640Z,810.00
2019-04-03T08:33:28.381Z,883.12
2019-04-03T08:34:30.749Z,950.62
2019-04-03T08:35:28.634Z,1023.75
2019-04-03T08:36:28.314Z,1096.88
2019-04-03T08:37:31.663Z,1158.75
2019-04-03T08:38:28.343Z,1220.62
2019-04-03T08:39:28.390Z,1260.00
2019-04-03T08:40:28.274Z,1333.12
2019-04-03T08:41:29.354Z,1389.38
2019-04-03T08:42:29.112Z,1445.62
2019-04-03T08:43:31.361Z,1462.50
2019-04-03T08:44:28.216Z,1473.75
2019-04-03T08:45:28.664Z,1518.75
2019-04-03T08:46:29.287Z,1428.75
2019-04-03T08:47:28.186Z,1563.75
2019-04-03T08:48:28.247Z,1496.25
2019-04-03T08:49:28.359Z,1423.12
2019-04-03T08:50:28.789Z,1333.12
2019-04-03T08:51:28.149Z,1327.50
2019-04-03T08:52:29.197Z,1383.75
2019-04-03T08:53:28.140Z,1383.75
2019-04-03T08:54:29.140Z,1501.88
2019-04-03T08:55:28.090Z,1687.50
2019-04-03T08:56:28.346Z,1777.50
2019-04-03T08:57:29.391Z,1878.75
2019-04-03T08:58:28.074Z,1996.88
2019-04-03T08:59:28.731Z,2019.38
2019-04-03T09:00:28.047Z,1951.88
2019-04-03T09:01:28.024Z,2075.62
2019-04-03T09:02:28.015Z,2086.88
2019-04-03T09:03:28.225Z,2086.88
2019-04-03T09:04:28.289Z,2261.25
2019-04-03T09:05:28.066Z,2323.12
2019-04-03T09:06:28.151Z,2300.62
2019-04-03T09:07:27.961Z,2413.12
2019-04-03T09:08:28.149Z,1597.50
2019-04-03T09:09:29.903Z,1203.75
2019-04-03T09:10:28.414Z,1243.12
2019-04-03T09:11:27.913Z,1968.75
2019-04-03T09:12:27.901Z,1473.75
2019-04-03T09:13:27.909Z,1608.75
2019-04-03T09:14:29.921Z,1760.62
2019-04-03T09:15:28.678Z,1873.12
2019-04-03T09:16:28.830Z,1260.00
2019-04-03T09:17:28.069Z,1164.38
2019-04-03T09:18:30.333Z,1108.12
2019-04-03T09:19:28.120Z,1051.88
2019-04-03T09:20:27.835Z,1012.50
2019-04-03T09:21:27.854Z,973.12
2019-04-03T09:22:27.775Z,922.50
2019-04-03T09:23:27.784Z,888.75
2019-04-03T09:24:29.631Z,866.25
2019-04-03T09:25:27.830Z,860.62
2019-04-03T09:26:27.746Z,877.50
2019-04-03T09:27:27.759Z,815.62
2019-04-03T09:28:27.718Z,776.25
2019-04-03T09:29:27.789Z,765.00
2019-04-03T09:30:27.710Z,781.88
2019-04-03T09:31:27.730Z,826.88
2019-04-03T09:32:27.853Z,849.38
2019-04-03T09:33:29.382Z,849.38
2019-04-03T09:34:29.661Z,849.38
2019-04-03T09:35:28.772Z,804.38
2019-04-03T09:36:27.634Z,776.25
2019-04-03T09:37:27.654Z,765.00
2019-04-03T09:38:27.664Z,793.12
2019-04-03T09:39:27.589Z,793.12
2019-04-03T09:40:27.645Z,781.88
2019-04-03T09:41:28.583Z,776.25
2019-04-03T09:42:27.545Z,765.00
2019-04-03T09:43:28.566Z,770.62
2019-04-03T09:44:27.606Z,776.25
2019-04-03T09:45:28.179Z,759.38
2019-04-03T09:46:30.463Z,736.88
2019-04-03T09:47:28.550Z,731.25
2019-04-03T09:48:27.620Z,748.12
2019-04-03T09:49:27.792Z,776.25
2019-04-03T09:50:27.459Z,798.75
2019-04-03T09:51:27.490Z,838.12
2019-04-03T09:52:38.296Z,877.50
2019-04-03T09:53:28.420Z,916.88
2019-04-03T09:54:28.818Z,995.62
2019-04-03T09:55:27.413Z,1063.12
2019-04-03T09:56:27.403Z,1074.38
2019-04-03T09:57:30.188Z,1102.50
2019-04-03T09:58:27.404Z,1136.25
2019-04-03T09:59:27.594Z,1186.88
2019-04-03T10:00:27.355Z,1226.25
2019-04-03T10:01:27.325Z,1231.88
2019-04-03T10:02:27.327Z,1153.12
2019-04-03T10:03:34.819Z,1091.25
2019-04-03T10:04:27.572Z,1085.62
2019-04-03T10:05:28.982Z,1158.75
2019-04-03T10:06:30.440Z,1147.50
2019-04-03T10:07:27.588Z,1096.88
2019-04-03T10:08:27.354Z,1091.25
2019-04-03T10:09:27.645Z,1046.25
2019-04-03T10:10:27.292Z,984.38
2019-04-03T10:11:27.211Z,939.38
2019-04-03T10:12:27.229Z,922.50
2019-04-03T10:13:27.192Z,916.88
2019-04-03T10:14:28.144Z,900.00
2019-04-03T10:15:27.301Z,849.38
2019-04-03T10:16:27.408Z,781.88
2019-04-03T10:17:27.145Z,748.12
2019-04-03T10:18:27.241Z,736.88
2019-04-03T10:19:27.246Z,781.88
2019-04-03T10:20:27.130Z,832.50
2019-04-03T10:21:29.177Z,838.12
2019-04-03T10:22:27.264Z,793.12
2019-04-03T10:23:29.038Z,787.50
2019-04-03T10:24:27.079Z,776.25
2019-04-03T10:25:35.157Z,731.25
2019-04-03T10:26:27.052Z,613.12
2019-04-03T10:27:28.145Z,534.38
2019-04-03T10:28:27.024Z,528.75
2019-04-03T10:29:27.375Z,562.50
2019-04-03T10:30:28.072Z,528.75
2019-04-03T10:31:27.049Z,517.50
2019-04-03T10:32:28.039Z,523.12
2019-04-03T10:33:26.965Z,528.75
2019-04-03T10:34:26.973Z,534.38
2019-04-03T10:35:26.947Z,573.75
2019-04-03T10:36:26.954Z,669.38
2019-04-03T10:37:26.915Z,770.62
2019-04-03T10:38:27.249Z,804.38
2019-04-03T10:39:26.927Z,821.25
2019-04-03T10:40:26.897Z,849.38
2019-04-03T10:41:29.107Z,866.25
2019-04-03T10:42:26.935Z,860.62
2019-04-03T10:43:27.960Z,888.75
2019-04-03T10:44:26.877Z,894.38
2019-04-03T10:45:26.840Z,866.25
2019-04-03T10:46:26.819Z,860.62
2019-04-03T10:47:39.379Z,883.12
2019-04-03T10:48:28.700Z,888.75
2019-04-03T10:49:27.246Z,871.88
2019-04-03T10:50:26.784Z,810.00
2019-04-03T10:51:26.775Z,787.50
2019-04-03T10:52:26.923Z,838.12
2019-04-03T10:53:26.814Z,900.00
2019-04-03T10:54:26.764Z,967.50
2019-04-03T10:55:28.967Z,1006.88
2019-04-03T10:56:26.745Z,1035.00
2019-04-03T10:57:26.786Z,1096.88
2019-04-03T10:58:26.949Z,1119.38
2019-04-03T10:59:26.962Z,1091.25
2019-04-03T11:00:29.114Z,1057.50
2019-04-03T11:01:26.760Z,1040.62
2019-04-03T11:02:26.729Z,1029.38
2019-04-03T11:03:26.864Z,1012.50
2019-04-03T11:04:27.799Z,1006.88
2019-04-03T11:05:26.610Z,990.00
2019-04-03T11:06:26.922Z,984.38
2019-04-03T11:07:26.717Z,995.62
2019-04-03T11:08:26.572Z,990.00
2019-04-03T11:09:26.855Z,961.88
2019-04-03T11:10:26.547Z,945.00
2019-04-03T11:11:27.197Z,945.00
2019-04-03T11:12:26.817Z,950.62
2019-04-03T11:13:26.768Z,956.25
2019-04-03T11:14:26.526Z,939.38
2019-04-03T11:15:26.506Z,916.88
2019-04-03T11:16:26.484Z,928.12
2019-04-03T11:17:26.547Z,928.12
2019-04-03T11:18:27.025Z,967.50
2019-04-03T11:19:26.860Z,1063.12
2019-04-03T11:20:26.428Z,1119.38
2019-04-03T11:21:26.586Z,1130.62
2019-04-03T11:22:30.378Z,1108.12
2019-04-03T11:23:38.640Z,1035.00
2019-04-03T11:24:27.750Z,922.50
2019-04-03T11:25:26.409Z,860.62
2019-04-03T11:26:26.372Z,832.50
2019-04-03T11:27:40.418Z,855.00
2019-04-03T11:28:27.354Z,871.88
2019-04-03T11:29:26.403Z,916.88
2019-04-03T11:30:28.488Z,933.75
2019-04-03T11:31:28.456Z,916.88
2019-04-03T11:32:26.365Z,911.25
2019-04-03T11:33:26.298Z,905.62
2019-04-03T11:34:26.369Z,894.38
2019-04-03T11:35:26.258Z,866.25
2019-04-03T11:36:29.714Z,838.12
2019-04-03T11:37:26.364Z,843.75
2019-04-03T11:38:29.087Z,849.38
2019-04-03T11:39:26.290Z,849.38
2019-04-03T11:40:26.210Z,871.88
2019-04-03T11:41:26.170Z,900.00
2019-04-03T11:42:29.240Z,922.50
2019-04-03T11:43:26.376Z,922.50
2019-04-03T11:44:26.151Z,905.62
2019-04-03T11:45:26.206Z,883.12
2019-04-03T11:46:26.234Z,860.62
2019-04-03T11:47:26.133Z,855.00
2019-04-03T11:48:27.206Z,888.75
2019-04-03T11:49:26.125Z,950.62
2019-04-03T11:50:26.536Z,990.00
2019-04-03T11:51:28.997Z,1006.88
2019-04-03T11:52:26.076Z,1006.88
2019-04-03T11:53:26.096Z,1006.88
2019-04-03T11:54:26.420Z,990.00
2019-04-03T11:55:28.253Z,939.38
2019-04-03T11:56:26.104Z,900.00
2019-04-03T11:57:26.886Z,883.12
2019-04-03T11:58:28.097Z,810.00
2019-04-03T11:59:26.073Z,748.12
2019-04-03T12:00:26.011Z,725.62
2019-04-03T12:01:26.180Z,680.62
2019-04-03T12:02:27.127Z,663.75
2019-04-03T12:03:26.709Z,630.00
2019-04-03T12:04:26.066Z,624.38
2019-04-03T12:05:25.976Z,624.38
2019-04-03T12:06:26.419Z,624.38
2019-04-03T12:07:26.142Z,652.50
2019-04-03T12:08:28.512Z,618.75
2019-04-03T12:09:26.916Z,573.75
2019-04-03T12:10:26.233Z,573.75
2019-04-03T12:11:27.113Z,579.38
2019-04-03T12:12:26.265Z,585.00
2019-04-03T12:13:27.911Z,613.12
2019-04-03T12:14:25.868Z,618.75
2019-04-03T12:15:26.964Z,686.25
2019-04-03T12:16:26.267Z,765.00
2019-04-03T12:17:26.992Z,781.88
2019-04-03T12:18:25.783Z,748.12
2019-04-03T12:19:27.267Z,714.38
2019-04-03T12:20:26.164Z,680.62
2019-04-03T12:21:25.784Z,697.50
2019-04-03T12:22:25.773Z,742.50
2019-04-03T12:23:26.779Z,804.38
2019-04-03T12:24:26.170Z,843.75
2019-04-03T12:25:25.714Z,781.88
2019-04-03T12:26:25.747Z,742.50
2019-04-03T12:27:25.686Z,720.00
2019-04-03T12:28:26.707Z,680.62
2019-04-03T12:29:25.670Z,646.88
2019-04-03T12:30:27.299Z,663.75
2019-04-03T12:31:25.678Z,607.50
2019-04-03T12:32:36.516Z,545.62
2019-04-03T12:33:26.623Z,500.62
2019-04-03T12:34:26.710Z,461.25
2019-04-03T12:35:25.610Z,410.62
2019-04-03T12:36:27.544Z,382.50
2019-04-03T12:37:26.086Z,365.62
2019-04-03T12:38:33.341Z,326.25
2019-04-03T12:39:26.981Z,292.50
2019-04-03T12:40:25.879Z,281.25
2019-04-03T12:41:27.154Z,281.25
2019-04-03T12:42:34.223Z,286.88
2019-04-03T12:43:25.495Z,303.75
2019-04-03T12:44:33.344Z,331.88
2019-04-03T12:45:26.904Z,365.62